createdAt,value
2022-12-06T00:00:23.067Z,2.20
2022-12-06T00:01:29.072Z,2.20
2022-12-06T00:02:30.572Z,2.20
2022-12-06T00:03:32.382Z,2.20
2022-12-06T00:04:34.042Z,2.20
2022-12-06T00:05:35.617Z,2.20
2022-12-06T00:06:47.583Z,2.20
2022-12-06T00:07:50.131Z,2.10
2022-12-06T00:08:52.433Z,2.10
2022-12-06T00:09:53.872Z,2.10
2022-12-06T00:10:55.499Z,2.10
2022-12-06T00:11:57.649Z,2.20
2022-12-06T00:12:59.109Z,2.20
2022-12-06T00:14:03.417Z,2.10
2022-12-06T00:15:05.328Z,2.10
2022-12-06T00:16:09.979Z,2.20
2022-12-06T00:17:11.384Z,2.10
2022-12-06T00:18:12.781Z,2.10
2022-12-06T00:19:16.151Z,2.10
2022-12-06T00:20:17.692Z,2.00
2022-12-06T00:21:23.415Z,2.00
2022-12-06T00:22:24.791Z,2.00
2022-12-06T00:23:31.432Z,2.00
2022-12-06T00:24:34.708Z,2.00
2022-12-06T00:25:36.237Z,2.10
2022-12-06T00:26:40.529Z,2.10
2022-12-06T00:27:41.900Z,2.10
2022-12-06T00:28:44.038Z,2.00
2022-12-06T00:29:45.880Z,2.00
2022-12-06T00:30:47.248Z,2.00
2022-12-06T00:31:49.922Z,1.90
2022-12-06T00:32:51.430Z,1.90
2022-12-06T00:33:54.129Z,1.90
2022-12-06T00:34:55.755Z,1.90
2022-12-06T00:36:02.442Z,1.90
2022-12-06T00:37:03.887Z,1.90
2022-12-06T00:38:05.364Z,1.80
2022-12-06T00:39:09.948Z,1.70
2022-12-06T00:40:11.800Z,1.70
2022-12-06T00:41:21.774Z,1.70
2022-12-06T00:42:23.361Z,1.70
2022-12-06T00:43:24.800Z,1.70
2022-12-06T00:44:26.148Z,1.70
2022-12-06T00:45:28.015Z,1.70
2022-12-06T00:46:31.032Z,1.70
2022-12-06T00:47:32.458Z,1.70
2022-12-06T00:48:35.061Z,1.70
2022-12-06T00:49:36.510Z,1.70
2022-12-06T00:50:37.859Z,1.70
2022-12-06T00:51:39.733Z,1.70
2022-12-06T00:52:41.144Z,1.60
2022-12-06T00:53:42.835Z,1.60
2022-12-06T00:54:44.255Z,1.60
2022-12-06T00:55:46.360Z,1.60
2022-12-06T00:56:47.825Z,1.60
2022-12-06T00:57:49.220Z,1.70
2022-12-06T00:58:50.620Z,1.60
2022-12-06T00:59:52.082Z,1.50
2022-12-06T01:00:53.826Z,1.50
2022-12-06T01:01:55.312Z,1.50
2022-12-06T01:02:58.114Z,1.60
2022-12-06T01:04:01.962Z,1.70
2022-12-06T01:05:03.636Z,1.60
2022-12-06T01:06:07.650Z,1.60
2022-12-06T01:07:09.278Z,1.60
2022-12-06T01:08:11.470Z,1.60
2022-12-06T01:09:13.212Z,1.50
2022-12-06T01:10:14.606Z,1.60
2022-12-06T01:11:16.440Z,1.60
2022-12-06T01:12:17.808Z,1.60
2022-12-06T01:13:19.476Z,1.60
2022-12-06T01:14:21.107Z,1.60
2022-12-06T01:15:22.737Z,1.50
2022-12-06T01:16:27.553Z,1.60
2022-12-06T01:17:29.020Z,1.60
2022-12-06T01:18:30.548Z,1.60
2022-12-06T01:19:31.947Z,1.70
2022-12-06T01:20:34.673Z,1.60
2022-12-06T01:21:36.143Z,1.70
2022-12-06T01:22:37.582Z,1.60
2022-12-06T01:23:39.408Z,1.50
2022-12-06T01:24:40.777Z,1.50
2022-12-06T01:25:52.215Z,1.40
2022-12-06T01:26:53.836Z,1.40
2022-12-06T01:27:55.213Z,1.30
2022-12-06T01:28:58.802Z,1.30
2022-12-06T01:30:00.451Z,1.30
2022-12-06T01:31:07.397Z,1.20
2022-12-06T01:32:08.980Z,1.30
2022-12-06T01:33:10.448Z,1.20
2022-12-06T01:34:16.272Z,1.20
2022-12-06T01:35:17.949Z,1.20
2022-12-06T01:36:21.829Z,1.20
2022-12-06T01:37:23.404Z,1.20
2022-12-06T01:38:25.034Z,1.30
2022-12-06T01:39:26.821Z,1.40
2022-12-06T01:40:28.181Z,1.30
2022-12-06T01:41:29.561Z,1.30
2022-12-06T01:42:30.931Z,1.40
2022-12-06T01:43:42.159Z,1.30
2022-12-06T01:44:48.229Z,1.30
2022-12-06T01:45:49.685Z,1.30
2022-12-06T01:46:51.421Z,1.30
2022-12-06T01:47:53.131Z,1.30
2022-12-06T01:49:13.516Z,1.30
2022-12-06T01:50:23.875Z,1.30
2022-12-06T01:51:25.496Z,1.30
2022-12-06T01:52:32.719Z,1.30
2022-12-06T01:53:35.039Z,1.30
2022-12-06T01:54:36.903Z,1.30
2022-12-06T01:55:40.166Z,1.40
2022-12-06T01:56:42.202Z,1.50
2022-12-06T01:57:44.264Z,1.40
2022-12-06T01:58:48.255Z,1.40
2022-12-06T01:59:49.849Z,1.40
2022-12-06T02:00:52.001Z,1.50
2022-12-06T02:01:54.087Z,1.50
2022-12-06T02:02:59.631Z,1.50
2022-12-06T02:04:01.928Z,1.40
2022-12-06T02:05:03.879Z,1.50
2022-12-06T02:06:06.944Z,1.50
2022-12-06T02:07:08.965Z,1.50
2022-12-06T02:08:13.017Z,1.40
2022-12-06T02:09:16.581Z,1.60
2022-12-06T02:10:18.861Z,1.60
2022-12-06T02:11:20.445Z,1.60
2022-12-06T02:12:21.882Z,1.70
2022-12-06T02:13:24.457Z,1.70
2022-12-06T02:14:31.844Z,1.70
2022-12-06T02:15:47.292Z,1.70
2022-12-06T02:17:15.761Z,1.70
2022-12-06T02:18:33.735Z,1.60
2022-12-06T02:19:49.935Z,1.60
2022-12-06T02:21:19.764Z,1.60
2022-12-06T02:22:53.987Z,1.60
2022-12-06T02:24:22.144Z,1.60
2022-12-06T02:25:43.577Z,1.60
2022-12-06T02:26:52.196Z,1.70
2022-12-06T02:28:08.347Z,1.70
2022-12-06T02:29:46.392Z,1.80
2022-12-06T02:30:52.787Z,1.90
2022-12-06T02:32:26.055Z,1.90
2022-12-06T02:33:49.963Z,1.90
2022-12-06T02:35:12.790Z,1.90
2022-12-06T02:36:41.588Z,1.80
2022-12-06T02:37:49.691Z,1.80
2022-12-06T02:39:16.043Z,1.80
2022-12-06T02:40:23.277Z,1.90
2022-12-06T02:41:30.500Z,1.90
2022-12-06T02:42:36.576Z,1.90
2022-12-06T02:43:43.724Z,2.10
2022-12-06T02:44:55.435Z,2.00
2022-12-06T02:46:01.394Z,2.00
2022-12-06T02:47:06.229Z,1.90
2022-12-06T02:48:09.759Z,1.90
2022-12-06T02:49:13.389Z,1.80
2022-12-06T02:50:20.040Z,1.90
2022-12-06T02:51:22.462Z,1.90
2022-12-06T02:52:27.436Z,1.90
2022-12-06T02:53:32.741Z,1.90
2022-12-06T02:54:34.345Z,1.90
2022-12-06T02:55:37.085Z,1.90
2022-12-06T02:56:38.559Z,1.90
2022-12-06T02:57:41.730Z,1.90
2022-12-06T02:58:43.328Z,1.90
2022-12-06T02:59:52.838Z,1.90
2022-12-06T03:00:58.858Z,2.00
2022-12-06T03:02:03.003Z,1.90
2022-12-06T03:03:19.513Z,1.90
2022-12-06T03:04:34.953Z,1.90
2022-12-06T03:05:47.085Z,1.90
2022-12-06T03:07:08.931Z,1.90
2022-12-06T03:08:21.515Z,2.00
2022-12-06T03:09:46.288Z,2.00
2022-12-06T03:10:57.153Z,2.10
2022-12-06T03:12:14.007Z,2.20
2022-12-06T03:13:33.753Z,2.20
2022-12-06T03:14:45.489Z,2.10
2022-12-06T03:16:26.940Z,2.10
2022-12-06T03:17:53.877Z,2.10
2022-12-06T03:19:04.099Z,2.10
2022-12-06T03:20:12.286Z,2.10
2022-12-06T03:21:19.742Z,2.10
2022-12-06T03:22:33.440Z,2.00
2022-12-06T03:23:44.986Z,2.10
2022-12-06T03:24:47.360Z,2.00
2022-12-06T03:25:51.137Z,2.10
2022-12-06T03:26:54.425Z,2.20
2022-12-06T03:27:57.962Z,2.20
2022-12-06T03:29:03.238Z,2.10
2022-12-06T03:30:08.388Z,2.10
2022-12-06T03:31:13.116Z,2.10
2022-12-06T03:32:17.536Z,2.00
2022-12-06T03:33:22.922Z,2.10
2022-12-06T03:34:35.977Z,2.10
2022-12-06T03:35:57.699Z,2.10
2022-12-06T03:37:01.879Z,2.10
2022-12-06T03:38:18.335Z,2.10
2022-12-06T03:39:28.286Z,2.20
2022-12-06T03:40:32.736Z,2.10
2022-12-06T03:41:45.486Z,2.10
2022-12-06T03:42:47.856Z,2.00
2022-12-06T03:43:49.333Z,2.10
2022-12-06T03:44:50.870Z,2.10
2022-12-06T03:45:55.359Z,2.10
2022-12-06T03:47:08.192Z,2.20
2022-12-06T03:48:42.528Z,2.20
2022-12-06T03:49:53.177Z,2.20
2022-12-06T03:51:00.839Z,2.20
2022-12-06T03:52:03.406Z,2.20
2022-12-06T03:53:06.037Z,2.30
2022-12-06T03:54:08.696Z,2.30
2022-12-06T03:55:10.448Z,2.40
2022-12-06T03:56:11.998Z,2.40
2022-12-06T03:57:14.226Z,2.40
2022-12-06T03:58:15.689Z,2.40
2022-12-06T03:59:17.111Z,2.40
2022-12-06T04:00:19.227Z,2.40
2022-12-06T04:01:20.939Z,2.40
2022-12-06T04:02:22.394Z,2.40
2022-12-06T04:03:23.960Z,2.40
2022-12-06T04:04:25.486Z,2.40
2022-12-06T04:05:26.873Z,2.40
2022-12-06T04:06:28.436Z,2.50
2022-12-06T04:07:29.823Z,2.50
2022-12-06T04:08:31.468Z,2.60
2022-12-06T04:09:51.731Z,2.60
2022-12-06T04:10:53.195Z,2.60
2022-12-06T04:11:54.623Z,2.60
2022-12-06T04:13:02.250Z,2.60
2022-12-06T04:14:03.696Z,2.60
2022-12-06T04:15:05.926Z,2.60
2022-12-06T04:16:28.022Z,2.60
2022-12-06T04:17:48.122Z,2.70
2022-12-06T04:18:49.503Z,2.60
2022-12-06T04:19:52.228Z,2.70
2022-12-06T04:21:20.628Z,2.70
2022-12-06T04:22:40.794Z,2.70
2022-12-06T04:23:44.778Z,2.70
2022-12-06T04:24:46.221Z,2.70
2022-12-06T04:25:47.628Z,2.70
2022-12-06T04:26:49.030Z,2.70
2022-12-06T04:28:09.310Z,2.70
2022-12-06T04:29:29.731Z,2.70
2022-12-06T04:30:49.760Z,2.70
2022-12-06T04:32:09.823Z,2.70
2022-12-06T04:33:30.045Z,2.70
2022-12-06T04:34:50.192Z,2.70
2022-12-06T04:36:10.667Z,2.70
2022-12-06T04:37:31.066Z,2.70
2022-12-06T04:38:47.650Z,2.70
2022-12-06T04:39:49.127Z,2.70
2022-12-06T04:40:50.494Z,2.60
2022-12-06T04:42:11.036Z,2.50
2022-12-06T04:43:31.520Z,2.50
2022-12-06T04:44:33.478Z,2.50
2022-12-06T04:45:35.430Z,2.50
2022-12-06T04:46:37.234Z,2.50
2022-12-06T04:47:38.699Z,2.50
2022-12-06T04:48:40.862Z,2.60
2022-12-06T04:49:42.377Z,2.60
2022-12-06T04:50:50.812Z,2.60
2022-12-06T04:51:53.275Z,2.60
2022-12-06T04:52:55.091Z,2.60
2022-12-06T04:53:56.515Z,2.60
2022-12-06T04:54:57.933Z,2.60
2022-12-06T04:55:59.298Z,2.60
2022-12-06T04:57:01.757Z,2.70
2022-12-06T04:58:03.321Z,2.70
2022-12-06T04:59:04.934Z,2.70
2022-12-06T05:00:07.588Z,2.70
2022-12-06T05:01:09.404Z,2.70
2022-12-06T05:02:13.450Z,2.70
2022-12-06T05:03:15.155Z,2.70
2022-12-06T05:04:16.656Z,2.70
2022-12-06T05:05:18.465Z,2.80
2022-12-06T05:06:19.885Z,2.80
2022-12-06T05:07:21.311Z,2.90
2022-12-06T05:08:22.829Z,2.90
2022-12-06T05:09:24.591Z,2.90
2022-12-06T05:10:26.276Z,2.90
2022-12-06T05:11:28.083Z,3.00
2022-12-06T05:12:29.707Z,2.90
2022-12-06T05:13:31.095Z,2.90
2022-12-06T05:14:32.546Z,2.90
2022-12-06T05:15:34.013Z,2.90
2022-12-06T05:16:35.555Z,3.00
2022-12-06T05:17:37.015Z,3.00
2022-12-06T05:18:38.708Z,3.00
2022-12-06T05:19:40.246Z,3.00
2022-12-06T05:21:06.736Z,3.00
2022-12-06T05:22:08.109Z,3.00
2022-12-06T05:23:09.509Z,3.10
2022-12-06T05:24:10.949Z,3.10
2022-12-06T05:25:12.845Z,3.00
2022-12-06T05:26:20.066Z,2.90
2022-12-06T05:27:21.464Z,2.80
2022-12-06T05:28:23.322Z,2.70
2022-12-06T05:29:24.762Z,2.70
2022-12-06T05:30:26.385Z,2.80
2022-12-06T05:31:28.064Z,2.80
2022-12-06T05:32:29.700Z,2.80
2022-12-06T05:33:32.233Z,2.80
2022-12-06T05:34:33.668Z,2.90
2022-12-06T05:35:35.108Z,2.80
2022-12-06T05:36:36.489Z,2.70
2022-12-06T05:37:37.935Z,2.70
2022-12-06T05:38:39.733Z,2.70
2022-12-06T05:39:41.110Z,2.70
2022-12-06T05:40:44.059Z,2.70
2022-12-06T05:41:45.519Z,2.70
2022-12-06T05:42:46.979Z,2.80
2022-12-06T05:43:48.964Z,2.80
2022-12-06T05:44:50.383Z,2.70
2022-12-06T05:45:55.332Z,2.80
2022-12-06T05:46:57.146Z,2.80
2022-12-06T05:47:58.550Z,2.80
2022-12-06T05:49:00.078Z,2.80
2022-12-06T05:50:02.307Z,2.80
2022-12-06T05:51:04.353Z,2.70
2022-12-06T05:52:05.751Z,2.70
2022-12-06T05:53:07.098Z,2.70
2022-12-06T05:54:08.856Z,2.70
2022-12-06T05:55:10.259Z,2.80
2022-12-06T05:56:12.884Z,2.70
2022-12-06T05:57:14.516Z,2.80
2022-12-06T05:58:17.231Z,2.80
2022-12-06T05:59:18.844Z,2.90
2022-12-06T06:00:21.027Z,2.80
2022-12-06T06:01:22.704Z,2.80
2022-12-06T06:02:24.693Z,2.80
2022-12-06T06:03:26.278Z,2.80
2022-12-06T06:04:27.809Z,2.70
2022-12-06T06:05:30.245Z,2.70
2022-12-06T06:06:31.981Z,2.70
2022-12-06T06:07:33.375Z,2.70
2022-12-06T06:08:34.844Z,2.70
2022-12-06T06:09:36.499Z,2.70
2022-12-06T06:10:37.921Z,2.80
2022-12-06T06:11:39.333Z,2.70
2022-12-06T06:12:40.770Z,2.70
2022-12-06T06:13:42.318Z,2.80
2022-12-06T06:14:43.797Z,2.80
2022-12-06T06:15:45.334Z,2.70
2022-12-06T06:16:46.787Z,2.80
2022-12-06T06:17:48.436Z,2.80
2022-12-06T06:18:50.048Z,2.80
2022-12-06T06:19:51.975Z,2.80
2022-12-06T06:20:57.094Z,2.80
2022-12-06T06:21:58.760Z,2.80
2022-12-06T06:23:00.342Z,2.80
2022-12-06T06:24:02.414Z,2.80
2022-12-06T06:25:04.946Z,2.90
2022-12-06T06:26:08.415Z,2.90
2022-12-06T06:27:10.889Z,2.90
2022-12-06T06:28:12.712Z,2.90
2022-12-06T06:29:14.186Z,2.90
2022-12-06T06:30:15.748Z,3.00
2022-12-06T06:31:17.587Z,3.00
2022-12-06T06:32:19.382Z,3.00
2022-12-06T06:33:21.353Z,2.90
2022-12-06T06:34:22.855Z,2.80
2022-12-06T06:35:24.330Z,2.70
2022-12-06T06:36:25.962Z,2.70
2022-12-06T06:37:27.440Z,2.70
2022-12-06T06:38:29.083Z,2.60
2022-12-06T06:39:30.459Z,2.60
2022-12-06T06:40:32.088Z,2.60
2022-12-06T06:41:33.467Z,2.60
2022-12-06T06:42:34.878Z,2.60
2022-12-06T06:43:36.304Z,2.70
2022-12-06T06:44:37.692Z,2.60
2022-12-06T06:45:39.155Z,2.60
2022-12-06T06:46:40.568Z,2.70
2022-12-06T06:47:41.961Z,2.70
2022-12-06T06:48:43.388Z,2.70
2022-12-06T06:49:44.867Z,2.70
2022-12-06T06:50:49.559Z,2.70
2022-12-06T06:51:54.111Z,2.70
2022-12-06T06:52:55.566Z,2.70
2022-12-06T06:53:57.225Z,2.70
2022-12-06T06:54:59.293Z,2.70
2022-12-06T06:56:00.710Z,2.70
2022-12-06T06:57:03.449Z,2.70
2022-12-06T06:58:05.440Z,2.70
2022-12-06T06:59:06.905Z,2.70
2022-12-06T07:00:09.247Z,2.70
2022-12-06T07:01:19.366Z,2.70
2022-12-06T07:02:20.996Z,2.70
2022-12-06T07:03:23.713Z,2.80
2022-12-06T07:04:25.081Z,2.80
2022-12-06T07:05:27.197Z,2.80
2022-12-06T07:06:28.753Z,2.80
2022-12-06T07:07:31.611Z,2.80
2022-12-06T07:08:33.390Z,2.80
2022-12-06T07:09:35.304Z,2.80
2022-12-06T07:10:36.770Z,2.90
2022-12-06T07:11:38.418Z,2.90
2022-12-06T07:12:39.831Z,2.90
2022-12-06T07:13:46.885Z,2.90
2022-12-06T07:14:52.547Z,2.90
2022-12-06T07:15:54.662Z,2.80
2022-12-06T07:16:56.557Z,2.80
2022-12-06T07:17:59.086Z,2.80
2022-12-06T07:19:03.422Z,2.80
2022-12-06T07:20:08.432Z,2.80
2022-12-06T07:21:13.561Z,2.80
2022-12-06T07:22:14.980Z,2.80
2022-12-06T07:23:16.450Z,2.90
2022-12-06T07:24:17.961Z,2.80
2022-12-06T07:25:19.373Z,2.80
2022-12-06T07:26:23.065Z,2.80
2022-12-06T07:27:24.621Z,2.80
2022-12-06T07:28:26.029Z,2.70
2022-12-06T07:29:27.953Z,2.80
2022-12-06T07:30:29.444Z,2.80
2022-12-06T07:31:31.571Z,2.80
2022-12-06T07:32:37.162Z,2.80
2022-12-06T07:33:41.910Z,2.80
2022-12-06T07:34:43.811Z,2.80
2022-12-06T07:36:14.182Z,2.80
2022-12-06T07:37:06.910Z,2.80
2022-12-06T07:38:08.700Z,2.90
2022-12-06T07:39:14.451Z,2.90
2022-12-06T07:40:26.631Z,2.90
2022-12-06T07:41:55.592Z,2.90
2022-12-06T07:43:36.114Z,2.90
2022-12-06T07:45:01.424Z,2.90
2022-12-06T07:46:03.682Z,2.90
2022-12-06T07:47:05.338Z,3.00
2022-12-06T07:48:06.838Z,3.00
2022-12-06T07:49:08.651Z,3.00
2022-12-06T07:50:18.469Z,3.00
2022-12-06T07:51:20.141Z,3.00
2022-12-06T07:52:21.837Z,3.00
2022-12-06T07:53:24.172Z,3.10
2022-12-06T07:54:26.203Z,3.10
2022-12-06T07:55:27.596Z,3.10
2022-12-06T07:56:29.307Z,3.10
2022-12-06T07:57:31.281Z,3.20
2022-12-06T07:58:32.675Z,3.20
2022-12-06T07:59:35.492Z,3.20
2022-12-06T08:00:37.585Z,3.20
2022-12-06T08:01:39.260Z,3.30
2022-12-06T08:02:40.838Z,3.30
2022-12-06T08:03:42.410Z,3.30
2022-12-06T08:04:44.039Z,3.30
2022-12-06T08:05:54.059Z,3.40
2022-12-06T08:06:56.267Z,3.40
2022-12-06T08:07:57.738Z,3.40
2022-12-06T08:08:59.730Z,3.40
2022-12-06T08:10:01.458Z,3.50
2022-12-06T08:11:05.623Z,3.50
2022-12-06T08:12:08.387Z,3.50
2022-12-06T08:13:09.845Z,3.50
2022-12-06T08:14:11.315Z,3.50
2022-12-06T08:15:12.966Z,3.50
2022-12-06T08:16:14.639Z,3.60
2022-12-06T08:17:16.146Z,3.60
2022-12-06T08:18:17.524Z,3.60
2022-12-06T08:19:19.107Z,3.60
2022-12-06T08:20:20.583Z,3.60
2022-12-06T08:21:22.178Z,3.70
2022-12-06T08:22:24.077Z,3.70
2022-12-06T08:23:32.258Z,3.70
2022-12-06T08:24:35.669Z,3.80
2022-12-06T08:25:37.408Z,3.80
2022-12-06T08:26:38.788Z,3.80
2022-12-06T08:27:40.197Z,3.80
2022-12-06T08:28:43.480Z,3.90
2022-12-06T08:29:45.710Z,3.90
2022-12-06T08:30:47.268Z,3.90
2022-12-06T08:31:49.031Z,3.90
2022-12-06T08:32:50.707Z,4.00
2022-12-06T08:33:52.264Z,4.00
2022-12-06T08:34:53.773Z,4.00
2022-12-06T08:35:55.243Z,4.00
2022-12-06T08:37:01.669Z,4.10
2022-12-06T08:38:04.854Z,4.10
2022-12-06T08:39:07.754Z,4.10
2022-12-06T08:40:09.801Z,4.10
2022-12-06T08:41:30.132Z,4.10
2022-12-06T08:42:31.991Z,4.20
2022-12-06T08:43:33.388Z,4.20
2022-12-06T08:44:36.417Z,4.30
2022-12-06T08:45:37.857Z,4.30
2022-12-06T08:46:40.030Z,4.30
2022-12-06T08:47:41.457Z,4.30
2022-12-06T08:48:43.758Z,4.40
2022-12-06T08:49:45.272Z,4.40
2022-12-06T08:50:46.736Z,4.40
2022-12-06T08:51:48.205Z,4.50
2022-12-06T08:52:49.625Z,4.50
2022-12-06T08:53:53.544Z,4.50
2022-12-06T08:54:54.964Z,4.60
2022-12-06T08:56:02.309Z,4.60
2022-12-06T08:57:04.809Z,4.60
2022-12-06T08:58:06.224Z,4.60
2022-12-06T08:59:08.415Z,4.70
2022-12-06T09:00:10.937Z,4.70
2022-12-06T09:01:16.300Z,4.80
2022-12-06T09:02:17.893Z,4.80
2022-12-06T09:03:19.594Z,4.70
2022-12-06T09:04:21.501Z,4.80
2022-12-06T09:05:22.998Z,4.80
2022-12-06T09:06:24.574Z,4.90
2022-12-06T09:07:26.448Z,4.90
2022-12-06T09:08:27.923Z,4.90
2022-12-06T09:09:29.392Z,4.90
2022-12-06T09:10:30.814Z,4.80
2022-12-06T09:11:32.353Z,4.80
2022-12-06T09:12:33.789Z,4.80
2022-12-06T09:13:37.750Z,4.80
2022-12-06T09:14:39.625Z,4.70
2022-12-06T09:15:41.023Z,4.70
2022-12-06T09:16:44.617Z,4.70
2022-12-06T09:17:46.034Z,4.70
2022-12-06T09:18:48.451Z,4.70
2022-12-06T09:19:49.956Z,4.70
2022-12-06T09:20:51.428Z,4.60
2022-12-06T09:21:52.870Z,4.70
2022-12-06T09:22:54.315Z,4.60
2022-12-06T09:23:56.932Z,4.50
2022-12-06T09:24:58.757Z,4.40
2022-12-06T09:26:00.380Z,4.30
2022-12-06T09:27:01.850Z,4.30
2022-12-06T09:28:04.501Z,4.30
2022-12-06T09:29:05.974Z,4.40
2022-12-06T09:30:08.131Z,4.40
2022-12-06T09:31:10.035Z,4.40
2022-12-06T09:32:11.528Z,4.40
2022-12-06T09:33:12.951Z,4.40
2022-12-06T09:34:14.962Z,4.40
2022-12-06T09:35:20.843Z,4.40
2022-12-06T09:36:28.341Z,4.50
2022-12-06T09:37:29.824Z,4.50
2022-12-06T09:38:34.925Z,4.60
2022-12-06T09:39:44.078Z,4.60
2022-12-06T09:41:03.859Z,4.50
2022-12-06T09:42:42.977Z,4.50
2022-12-06T09:43:56.195Z,4.50
2022-12-06T09:45:03.292Z,4.50
2022-12-06T09:46:35.935Z,4.60
2022-12-06T09:48:06.409Z,4.50
2022-12-06T09:49:20.366Z,4.50
2022-12-06T09:50:40.837Z,4.50
2022-12-06T09:52:03.100Z,4.50
2022-12-06T09:53:16.762Z,4.50
2022-12-06T09:54:53.519Z,4.50
2022-12-06T09:56:16.400Z,4.50
2022-12-06T09:57:46.808Z,4.50
2022-12-06T09:59:11.308Z,4.50
2022-12-06T10:00:20.854Z,4.50
2022-12-06T10:01:24.434Z,4.50
2022-12-06T10:02:54.060Z,4.50
2022-12-06T10:04:14.177Z,4.50
2022-12-06T10:05:15.600Z,4.60
2022-12-06T10:06:20.385Z,4.60
2022-12-06T10:07:34.089Z,4.60
2022-12-06T10:09:09.256Z,4.60
2022-12-06T10:10:29.944Z,4.70
2022-12-06T10:11:46.291Z,4.60
2022-12-06T10:13:04.490Z,4.70
2022-12-06T10:14:27.028Z,4.60
2022-12-06T10:16:11.626Z,4.70
2022-12-06T10:17:18.158Z,4.60
2022-12-06T10:18:41.388Z,4.60
2022-12-06T10:19:59.192Z,4.60
2022-12-06T10:21:19.902Z,4.70
2022-12-06T10:23:02.412Z,4.70
2022-12-06T10:24:34.862Z,4.70
2022-12-06T10:25:39.033Z,4.70
2022-12-06T10:26:51.305Z,4.80
2022-12-06T10:28:14.438Z,4.80
2022-12-06T10:29:18.667Z,4.80
2022-12-06T10:30:20.178Z,4.80
2022-12-06T10:31:24.418Z,4.80
2022-12-06T10:32:31.784Z,4.80
2022-12-06T10:33:56.443Z,4.80
2022-12-06T10:35:11.499Z,4.80
2022-12-06T10:36:19.643Z,4.90
2022-12-06T10:37:48.093Z,4.90
2022-12-06T10:38:54.012Z,4.90
2022-12-06T10:40:11.819Z,4.90
2022-12-06T10:41:33.086Z,4.90
2022-12-06T10:42:47.885Z,4.90
2022-12-06T10:43:52.248Z,4.90
2022-12-06T10:45:36.629Z,5.00
2022-12-06T10:47:05.624Z,5.00
2022-12-06T10:48:20.384Z,4.90
2022-12-06T10:49:30.546Z,5.00
2022-12-06T10:50:36.174Z,5.00
2022-12-06T10:51:51.720Z,5.10
2022-12-06T10:53:02.088Z,5.00
2022-12-06T10:54:31.306Z,5.00
2022-12-06T10:55:43.563Z,5.10
2022-12-06T10:56:47.524Z,5.10
2022-12-06T10:58:07.969Z,5.10
2022-12-06T10:59:30.008Z,5.10
2022-12-06T11:00:39.448Z,5.10
2022-12-06T11:01:43.223Z,5.20
2022-12-06T11:02:47.715Z,5.20
2022-12-06T11:04:05.954Z,5.10
2022-12-06T11:05:18.783Z,5.10
2022-12-06T11:06:20.147Z,5.10
2022-12-06T11:07:25.993Z,5.10
2022-12-06T11:08:33.048Z,5.10
2022-12-06T11:09:40.561Z,5.10
2022-12-06T11:10:45.140Z,5.10
2022-12-06T11:11:50.357Z,5.10
2022-12-06T11:13:20.359Z,5.10
2022-12-06T11:14:38.327Z,5.00
2022-12-06T11:15:44.798Z,5.00
2022-12-06T11:16:58.468Z,4.90
2022-12-06T11:18:10.400Z,4.90
2022-12-06T11:19:20.694Z,4.90
2022-12-06T11:20:34.018Z,4.90
2022-12-06T11:21:45.601Z,4.90
2022-12-06T11:23:11.049Z,4.90
2022-12-06T11:24:49.275Z,4.80
2022-12-06T11:26:38.337Z,4.80
2022-12-06T11:27:53.919Z,4.80
2022-12-06T11:29:05.006Z,4.80
2022-12-06T11:30:19.998Z,4.80
2022-12-06T11:31:32.588Z,4.80
2022-12-06T11:32:34.166Z,4.80
2022-12-06T11:33:36.596Z,4.90
2022-12-06T11:34:51.265Z,4.90
2022-12-06T11:35:53.228Z,4.90
2022-12-06T11:37:00.214Z,4.90
2022-12-06T11:38:05.371Z,5.00
2022-12-06T11:39:07.089Z,4.90
2022-12-06T11:40:23.974Z,5.00
2022-12-06T11:41:33.796Z,5.00
2022-12-06T11:42:35.514Z,5.00
2022-12-06T11:43:37.751Z,5.00
2022-12-06T11:44:48.069Z,5.00
2022-12-06T11:45:52.420Z,5.00
2022-12-06T11:47:00.263Z,5.00
2022-12-06T11:48:15.346Z,4.90
2022-12-06T11:49:29.123Z,4.90
2022-12-06T11:50:33.388Z,4.90
2022-12-06T11:51:34.828Z,4.90
2022-12-06T11:52:43.127Z,4.90
2022-12-06T11:54:00.756Z,4.90
2022-12-06T11:55:16.825Z,4.90
2022-12-06T11:56:34.165Z,5.00
2022-12-06T11:57:46.440Z,5.00
2022-12-06T11:59:28.539Z,5.10
2022-12-06T12:00:31.294Z,5.10
2022-12-06T12:01:45.399Z,5.10
2022-12-06T12:02:49.456Z,5.10
2022-12-06T12:03:51.401Z,5.20
2022-12-06T12:04:52.876Z,5.20
2022-12-06T12:06:07.968Z,5.30
2022-12-06T12:07:09.374Z,5.30
2022-12-06T12:08:19.777Z,5.40
2022-12-06T12:09:21.779Z,5.40
2022-12-06T12:10:43.363Z,5.40
2022-12-06T12:12:06.476Z,5.50
2022-12-06T12:13:29.419Z,5.50
2022-12-06T12:14:40.455Z,5.50
2022-12-06T12:15:51.777Z,5.50
2022-12-06T12:17:02.050Z,5.50
2022-12-06T12:18:06.064Z,5.50
2022-12-06T12:19:33.168Z,5.50
2022-12-06T12:20:39.315Z,5.60
2022-12-06T12:21:42.468Z,5.60
2022-12-06T12:22:44.221Z,5.60
2022-12-06T12:23:47.368Z,5.60
2022-12-06T12:26:19.360Z,5.60
2022-12-06T12:27:39.399Z,5.60
2022-12-06T12:28:42.555Z,5.50
2022-12-06T12:29:44.212Z,5.50
2022-12-06T12:31:00.254Z,5.60
2022-12-06T12:32:10.820Z,5.60
2022-12-06T12:33:18.401Z,5.50
2022-12-06T12:34:23.059Z,5.50
2022-12-06T12:35:25.831Z,5.50
2022-12-06T12:36:29.068Z,5.60
2022-12-06T12:37:30.920Z,5.60
2022-12-06T12:38:42.202Z,5.60
2022-12-06T12:39:53.896Z,5.60
2022-12-06T12:40:59.592Z,5.70
2022-12-06T12:42:02.539Z,5.70
2022-12-06T12:43:11.604Z,5.70
2022-12-06T12:44:38.084Z,5.70
2022-12-06T12:46:02.910Z,5.80
2022-12-06T12:47:20.583Z,5.80
2022-12-06T12:48:26.927Z,6.00
2022-12-06T12:49:36.726Z,6.10
2022-12-06T12:50:38.262Z,6.20
2022-12-06T12:51:45.003Z,6.20
2022-12-06T12:52:51.859Z,6.30
2022-12-06T12:54:04.037Z,6.30
2022-12-06T12:55:27.252Z,6.30
2022-12-06T12:56:32.916Z,6.30
2022-12-06T12:57:34.845Z,6.40
2022-12-06T12:58:36.535Z,6.40
2022-12-06T12:59:40.162Z,6.40
2022-12-06T13:00:43.871Z,6.40
2022-12-06T13:02:22.940Z,6.50
2022-12-06T13:03:50.210Z,6.40
2022-12-06T13:05:05.186Z,6.30
2022-12-06T13:06:26.892Z,6.40
2022-12-06T13:07:33.217Z,6.40
2022-12-06T13:08:36.281Z,6.30
2022-12-06T13:10:02.461Z,6.30
2022-12-06T13:11:06.448Z,6.40
2022-12-06T13:12:38.668Z,6.30
2022-12-06T13:13:44.545Z,6.20
2022-12-06T13:14:54.079Z,6.20
2022-12-06T13:15:58.452Z,6.10
2022-12-06T13:17:06.417Z,6.00
2022-12-06T13:18:18.465Z,5.90
2022-12-06T13:19:24.203Z,5.90
2022-12-06T13:20:29.463Z,5.90
2022-12-06T13:21:36.047Z,5.90
2022-12-06T13:22:45.049Z,5.90
2022-12-06T13:23:53.634Z,5.80
2022-12-06T13:25:02.549Z,5.70
2022-12-06T13:26:11.915Z,5.70
2022-12-06T13:27:17.732Z,5.70
2022-12-06T13:28:22.797Z,5.70
2022-12-06T13:29:46.547Z,5.60
2022-12-06T13:30:54.173Z,5.60
2022-12-06T13:31:58.349Z,5.70
2022-12-06T13:33:05.028Z,5.60
2022-12-06T13:34:23.111Z,5.60
2022-12-06T13:35:30.932Z,5.60
2022-12-06T13:36:34.666Z,5.60
2022-12-06T13:37:47.030Z,5.50
2022-12-06T13:38:48.607Z,5.60
2022-12-06T13:39:50.359Z,5.60
2022-12-06T13:40:54.088Z,5.60
2022-12-06T13:42:16.473Z,5.60
2022-12-06T13:43:24.183Z,5.60
2022-12-06T13:44:50.368Z,5.60
2022-12-06T13:46:00.751Z,5.70
2022-12-06T13:47:27.078Z,5.70
2022-12-06T13:48:28.561Z,5.70
2022-12-06T13:49:48.607Z,5.60
2022-12-06T13:51:04.295Z,5.60
2022-12-06T13:52:06.112Z,5.60
2022-12-06T13:53:07.722Z,5.60
2022-12-06T13:54:12.007Z,5.70
2022-12-06T13:55:25.935Z,5.70
2022-12-06T13:56:29.181Z,5.70
2022-12-06T13:57:31.935Z,5.70
2022-12-06T13:58:38.473Z,5.70
2022-12-06T13:59:40.920Z,5.70
2022-12-06T14:00:42.757Z,5.80
2022-12-06T14:01:53.383Z,5.80
2022-12-06T14:02:58.954Z,5.80
2022-12-06T14:04:02.098Z,5.80
2022-12-06T14:05:03.984Z,5.80
2022-12-06T14:06:15.227Z,5.80
2022-12-06T14:07:33.739Z,5.80
2022-12-06T14:08:47.246Z,5.80
2022-12-06T14:09:50.229Z,5.80
2022-12-06T14:10:51.774Z,5.80
2022-12-06T14:11:53.397Z,5.80
2022-12-06T14:13:02.968Z,5.80
2022-12-06T14:14:10.129Z,5.70
2022-12-06T14:15:19.275Z,5.70
2022-12-06T14:16:42.725Z,5.70
2022-12-06T14:18:04.349Z,5.60
2022-12-06T14:19:29.319Z,5.60
2022-12-06T14:20:31.783Z,5.60
2022-12-06T14:21:42.396Z,5.60
2022-12-06T14:22:47.124Z,5.60
2022-12-06T14:23:48.600Z,5.70
2022-12-06T14:25:17.930Z,5.70
2022-12-06T14:26:26.197Z,5.70
2022-12-06T14:27:33.406Z,5.70
2022-12-06T14:28:36.057Z,5.70
2022-12-06T14:29:38.982Z,5.70
2022-12-06T14:30:41.164Z,5.70
2022-12-06T14:31:42.861Z,5.60
2022-12-06T14:32:53.106Z,5.60
2022-12-06T14:33:55.910Z,5.60
2022-12-06T14:35:06.226Z,5.60
2022-12-06T14:36:20.088Z,5.70
2022-12-06T14:37:23.487Z,5.70
2022-12-06T14:38:30.166Z,5.70
2022-12-06T14:39:32.775Z,5.70
2022-12-06T14:40:59.268Z,5.70
2022-12-06T14:42:22.372Z,5.70
2022-12-06T14:43:26.612Z,5.60
2022-12-06T14:44:31.911Z,5.70
2022-12-06T14:45:34.821Z,5.70
2022-12-06T14:46:37.400Z,5.50
2022-12-06T14:47:39.432Z,5.60
2022-12-06T14:49:00.294Z,5.60
2022-12-06T14:50:21.340Z,5.60
2022-12-06T14:51:34.235Z,5.60
2022-12-06T14:52:35.809Z,5.60
2022-12-06T14:53:38.804Z,5.60
2022-12-06T14:54:44.071Z,5.60